createdAt,value
2022-12-31T00:01:25.445Z,17.58
2022-12-31T00:03:53.393Z,17.42
2022-12-31T00:06:32.899Z,16.52
2022-12-31T00:09:05.485Z,17.83
2022-12-31T00:11:34.369Z,12.95
2022-12-31T00:14:01.629Z,14.18
2022-12-31T00:16:32.975Z,15.23
2022-12-31T00:19:01.534Z,16.88
2022-12-31T00:21:31.107Z,19.90
2022-12-31T00:23:59.333Z,15.25
2022-12-31T00:26:39.171Z,15.82
2022-12-31T00:29:06.588Z,18.88
2022-12-31T00:31:37.195Z,18.67
2022-12-31T00:34:05.548Z,19.85
2022-12-31T00:36:36.077Z,20.20
2022-12-31T00:39:07.599Z,18.20
2022-12-31T00:41:35.461Z,18.30
2022-12-31T00:44:04.397Z,23.23
2022-12-31T00:46:32.161Z,21.83
2022-12-31T00:49:01.336Z,23.40
2022-12-31T00:51:29.042Z,15.63
2022-12-31T00:53:58.225Z,21.65
2022-12-31T00:56:28.716Z,23.90
2022-12-31T00:58:56.773Z,23.42
2022-12-31T01:01:27.342Z,23.20
2022-12-31T01:04:02.191Z,24.05
2022-12-31T01:06:31.195Z,29.77
2022-12-31T01:08:58.784Z,24.35
2022-12-31T01:11:29.668Z,22.70
2022-12-31T01:14:02.802Z,19.85
2022-12-31T01:16:43.492Z,26.58
2022-12-31T01:19:13.828Z,27.90
2022-12-31T01:21:42.449Z,23.63
2022-12-31T01:24:11.022Z,24.17
2022-12-31T01:26:45.393Z,26.20
2022-12-31T01:29:13.363Z,28.45
2022-12-31T01:31:41.637Z,25.10
2022-12-31T01:34:10.355Z,29.30
2022-12-31T01:36:38.650Z,26.27
2022-12-31T01:39:09.171Z,22.58
2022-12-31T01:41:42.753Z,24.88
2022-12-31T01:46:46.581Z,26.67
2022-12-31T01:49:26.624Z,19.05
2022-12-31T01:52:17.514Z,22.65
2022-12-31T01:55:01.363Z,26.85
2022-12-31T02:00:04.497Z,23.27
2022-12-31T02:02:31.850Z,27.08
2022-12-31T02:05:03.078Z,18.05
2022-12-31T02:07:30.775Z,20.23
2022-12-31T02:09:58.316Z,20.48
2022-12-31T02:12:25.853Z,14.27
2022-12-31T02:14:54.768Z,21.77
2022-12-31T02:17:44.116Z,18.15
2022-12-31T02:20:20.625Z,14.60
2022-12-31T02:23:18.757Z,21.35
2022-12-31T02:25:55.103Z,17.77
2022-12-31T02:29:05.861Z,18.08
2022-12-31T02:31:54.794Z,18.40
2022-12-31T02:34:33.094Z,19.95
2022-12-31T02:37:03.946Z,17.63
2022-12-31T02:39:32.883Z,17.95
2022-12-31T02:42:01.077Z,14.20
2022-12-31T02:44:34.827Z,17.13
2022-12-31T02:47:20.615Z,14.75
2022-12-31T02:49:56.511Z,17.13
2022-12-31T02:52:51.736Z,15.27
2022-12-31T02:55:53.468Z,16.10
2022-12-31T02:58:56.977Z,17.73
2022-12-31T03:01:48.867Z,18.50
2022-12-31T03:04:32.411Z,17.35
2022-12-31T03:07:15.627Z,16.10
2022-12-31T03:09:43.523Z,14.48
2022-12-31T03:12:31.908Z,15.23
2022-12-31T03:15:01.547Z,15.30
2022-12-31T03:17:29.195Z,14.93
2022-12-31T03:20:15.876Z,15.57
2022-12-31T03:22:43.854Z,14.93
2022-12-31T03:25:54.723Z,13.95
2022-12-31T03:28:24.760Z,12.88
2022-12-31T03:31:00.652Z,12.30
2022-12-31T03:33:36.483Z,11.80
2022-12-31T03:36:13.004Z,13.20
2022-12-31T03:38:41.162Z,10.63
2022-12-31T03:41:11.292Z,10.25
2022-12-31T03:43:39.070Z,11.10
2022-12-31T03:46:06.563Z,9.43
2022-12-31T03:48:35.091Z,11.02
2022-12-31T03:51:02.443Z,8.52
2022-12-31T03:53:31.037Z,9.65
2022-12-31T03:55:58.314Z,9.15
2022-12-31T03:58:26.832Z,7.88
2022-12-31T04:00:54.292Z,8.32
2022-12-31T04:03:21.513Z,6.78
2022-12-31T04:05:56.284Z,8.05
2022-12-31T04:08:24.466Z,6.57
2022-12-31T04:10:51.844Z,5.47
2022-12-31T04:13:21.265Z,7.15
2022-12-31T04:15:52.158Z,6.55
2022-12-31T04:18:19.347Z,5.97
2022-12-31T04:20:46.774Z,5.53
2022-12-31T04:23:14.172Z,5.72
2022-12-31T04:25:41.632Z,6.07
2022-12-31T04:28:09.076Z,4.25
2022-12-31T04:30:36.567Z,3.50
2022-12-31T04:33:04.076Z,4.35
2022-12-31T04:35:31.459Z,3.63
2022-12-31T04:37:59.023Z,3.10
2022-12-31T04:40:34.079Z,2.88
2022-12-31T04:43:01.532Z,3.63
2022-12-31T04:45:29.983Z,3.10
2022-12-31T04:47:57.505Z,2.97
2022-12-31T04:50:25.019Z,4.10
2022-12-31T04:52:53.456Z,2.60
2022-12-31T04:55:21.882Z,2.60
2022-12-31T04:57:49.351Z,3.58
2022-12-31T05:00:16.895Z,3.10
2022-12-31T05:02:44.068Z,2.80
2022-12-31T05:05:11.739Z,4.25
2022-12-31T05:07:39.183Z,4.07
2022-12-31T05:10:07.122Z,3.90
2022-12-31T05:12:34.677Z,3.10
2022-12-31T05:15:02.037Z,2.92
2022-12-31T05:17:29.498Z,3.13
2022-12-31T05:19:57.024Z,2.85
2022-12-31T05:22:30.062Z,3.67
2022-12-31T05:24:59.817Z,2.83
2022-12-31T05:27:28.576Z,3.60
2022-12-31T05:29:56.040Z,3.75
2022-12-31T05:32:23.508Z,3.92
2022-12-31T05:34:53.928Z,3.33
2022-12-31T05:37:21.434Z,3.10
2022-12-31T05:39:49.055Z,3.20
2022-12-31T05:42:16.371Z,2.75
2022-12-31T05:44:43.899Z,4.03
2022-12-31T05:47:11.336Z,5.82
2022-12-31T05:49:39.897Z,2.63
2022-12-31T05:52:09.383Z,3.33
2022-12-31T05:54:40.103Z,2.70
2022-12-31T05:57:08.270Z,4.07
2022-12-31T05:59:36.042Z,3.17
2022-12-31T06:02:03.178Z,3.58
2022-12-31T06:04:30.736Z,3.95
2022-12-31T06:07:00.182Z,2.75
2022-12-31T06:09:27.636Z,2.95
2022-12-31T06:11:55.099Z,2.63
2022-12-31T06:14:23.725Z,2.03
2022-12-31T06:16:50.948Z,2.10
2022-12-31T06:19:18.388Z,2.33
2022-12-31T06:21:45.959Z,2.00
2022-12-31T06:24:14.467Z,1.63
2022-12-31T06:26:41.915Z,2.40
2022-12-31T06:29:09.619Z,2.30
2022-12-31T06:31:37.565Z,2.25
2022-12-31T06:34:05.752Z,2.42
2022-12-31T06:36:33.594Z,2.00
2022-12-31T06:39:01.708Z,3.00
2022-12-31T06:41:29.113Z,2.75
2022-12-31T06:43:56.671Z,1.90
2022-12-31T06:46:24.364Z,1.88
2022-12-31T06:48:51.676Z,1.92
2022-12-31T06:51:21.340Z,2.50
2022-12-31T06:53:50.791Z,2.45
2022-12-31T06:56:20.555Z,2.10
2022-12-31T06:58:49.338Z,1.73
2022-12-31T07:01:49.527Z,2.25
2022-12-31T07:04:28.697Z,1.42
2022-12-31T07:07:13.153Z,1.83
2022-12-31T07:09:46.454Z,2.55
2022-12-31T07:12:40.001Z,2.10
2022-12-31T07:15:16.781Z,2.08
2022-12-31T07:18:14.241Z,1.63
2022-12-31T07:20:47.847Z,2.28
2022-12-31T07:25:51.996Z,1.63
2022-12-31T07:28:35.139Z,2.05
2022-12-31T07:31:35.532Z,2.20
2022-12-31T07:34:16.567Z,4.72
2022-12-31T07:37:02.306Z,2.30
2022-12-31T07:40:08.593Z,2.13
2022-12-31T07:42:59.632Z,2.38
2022-12-31T07:46:12.003Z,2.00
2022-12-31T07:48:39.436Z,2.70
2022-12-31T07:51:07.083Z,2.13
2022-12-31T07:53:34.894Z,2.10
2022-12-31T07:56:05.836Z,3.10
2022-12-31T07:59:05.896Z,2.40
2022-12-31T08:02:03.865Z,2.92
2022-12-31T08:04:58.795Z,3.05
2022-12-31T08:07:36.725Z,4.15
2022-12-31T08:10:17.684Z,3.30
2022-12-31T08:12:49.909Z,3.25
2022-12-31T08:15:20.599Z,3.67
2022-12-31T08:17:50.609Z,4.32
2022-12-31T08:20:18.959Z,3.53
2022-12-31T08:23:10.146Z,4.97
2022-12-31T08:25:46.119Z,3.40
2022-12-31T08:28:30.654Z,4.25
2022-12-31T08:31:04.629Z,4.63
2022-12-31T08:33:53.358Z,3.47
2022-12-31T08:36:39.308Z,3.70
2022-12-31T08:39:25.035Z,4.40
2022-12-31T08:41:55.511Z,4.10
2022-12-31T08:44:44.999Z,3.65
2022-12-31T08:47:32.888Z,3.53
2022-12-31T08:50:03.031Z,4.38
2022-12-31T08:52:30.623Z,4.72
2022-12-31T08:54:58.568Z,3.85
2022-12-31T08:57:46.763Z,4.35
2022-12-31T09:00:19.500Z,4.95
2022-12-31T09:03:02.004Z,5.23
2022-12-31T09:05:58.488Z,6.18
2022-12-31T09:08:51.503Z,6.60
2022-12-31T09:11:42.876Z,5.18
2022-12-31T09:14:20.934Z,6.50
2022-12-31T09:17:09.339Z,5.20
2022-12-31T09:19:36.977Z,8.65
2022-12-31T09:22:04.734Z,5.47
2022-12-31T09:24:32.609Z,4.72
2022-12-31T09:27:30.596Z,4.45
2022-12-31T09:30:16.596Z,5.68
2022-12-31T09:33:00.599Z,4.50
2022-12-31T09:35:55.940Z,4.93
2022-12-31T09:39:09.015Z,4.65
2022-12-31T09:42:13.318Z,6.90
2022-12-31T09:45:11.693Z,5.38
2022-12-31T09:48:26.472Z,7.07
2022-12-31T09:53:56.340Z,7.93
2022-12-31T09:56:33.277Z,8.88
2022-12-31T09:59:34.664Z,7.05
2022-12-31T10:02:41.711Z,6.68
2022-12-31T10:05:31.743Z,6.25
2022-12-31T10:08:22.321Z,5.10
2022-12-31T10:11:01.864Z,5.50
2022-12-31T10:13:58.136Z,3.83
2022-12-31T10:17:03.962Z,5.18
2022-12-31T10:19:45.920Z,4.07
2022-12-31T10:22:46.103Z,4.20
2022-12-31T10:25:38.476Z,4.00
2022-12-31T10:28:32.675Z,4.65
2022-12-31T10:31:20.776Z,3.92
2022-12-31T10:34:16.110Z,5.07
2022-12-31T10:36:58.446Z,6.82
2022-12-31T10:39:54.601Z,4.60
2022-12-31T10:42:55.441Z,3.22
2022-12-31T10:45:26.088Z,4.55
2022-12-31T10:48:12.830Z,5.28
2022-12-31T10:51:15.620Z,4.03
2022-12-31T10:54:19.297Z,4.45
2022-12-31T10:57:18.530Z,5.10
2022-12-31T11:00:13.515Z,6.53
2022-12-31T11:02:40.917Z,5.75
2022-12-31T11:05:48.360Z,6.60
2022-12-31T11:08:38.471Z,8.43
2022-12-31T11:11:27.211Z,6.95
2022-12-31T11:14:35.387Z,5.47
2022-12-31T11:17:37.969Z,4.60
2022-12-31T11:20:25.142Z,4.35
2022-12-31T11:23:10.439Z,4.75
2022-12-31T11:26:03.176Z,4.45
2022-12-31T11:28:47.617Z,4.53
2022-12-31T11:31:33.118Z,3.53
2022-12-31T11:34:05.955Z,3.50
2022-12-31T11:36:56.541Z,4.70
2022-12-31T11:39:32.012Z,3.20
2022-12-31T11:42:24.817Z,3.92
2022-12-31T11:45:13.639Z,4.53
2022-12-31T11:48:20.607Z,3.10
2022-12-31T11:50:54.147Z,3.50
2022-12-31T11:53:31.181Z,2.78
2022-12-31T11:56:10.580Z,5.07
2022-12-31T11:58:38.359Z,4.68
2022-12-31T12:01:29.435Z,3.10
2022-12-31T12:03:56.973Z,4.10
2022-12-31T12:06:29.493Z,5.35
2022-12-31T12:09:03.053Z,5.30
2022-12-31T12:11:37.898Z,5.38
2022-12-31T12:14:37.652Z,4.82
2022-12-31T12:17:09.707Z,4.63
2022-12-31T12:19:44.862Z,5.00
2022-12-31T12:22:22.991Z,5.45
2022-12-31T12:24:56.709Z,4.78
2022-12-31T12:30:08.132Z,5.90
2022-12-31T12:33:02.126Z,7.55
2022-12-31T12:35:34.003Z,8.27
2022-12-31T12:38:12.604Z,6.68
2022-12-31T12:40:40.998Z,9.43
2022-12-31T12:43:23.917Z,8.85
2022-12-31T12:45:52.650Z,7.45
2022-12-31T12:48:44.256Z,7.90
2022-12-31T12:51:48.639Z,8.43
2022-12-31T12:54:25.368Z,7.93
2022-12-31T12:57:16.644Z,8.65
2022-12-31T13:00:04.905Z,8.75
2022-12-31T13:03:02.162Z,8.18
2022-12-31T13:05:40.665Z,8.07
2022-12-31T13:08:33.099Z,7.95
2022-12-31T13:11:26.560Z,7.65
2022-12-31T13:14:26.213Z,8.13
2022-12-31T13:17:35.420Z,7.85
2022-12-31T13:20:30.222Z,8.43
2022-12-31T13:23:06.850Z,9.60
2022-12-31T13:25:59.063Z,9.95
2022-12-31T13:28:28.421Z,9.50
2022-12-31T13:31:06.559Z,9.05
2022-12-31T13:33:39.683Z,10.65
2022-12-31T13:36:17.451Z,9.85
2022-12-31T13:38:52.451Z,10.20
2022-12-31T13:41:38.397Z,12.93
2022-12-31T13:44:30.435Z,9.75
2022-12-31T13:47:24.949Z,11.65
2022-12-31T13:50:20.170Z,11.25
2022-12-31T13:53:12.154Z,11.75
2022-12-31T13:55:58.180Z,10.40
2022-12-31T13:58:33.590Z,11.40
2022-12-31T14:01:12.691Z,12.98
2022-12-31T14:04:03.812Z,11.88
2022-12-31T14:06:53.625Z,10.98
2022-12-31T14:09:25.389Z,12.32
2022-12-31T14:12:13.729Z,10.07
2022-12-31T14:14:53.154Z,10.98
2022-12-31T14:17:34.096Z,12.00
2022-12-31T14:20:22.711Z,13.70
2022-12-31T14:23:29.586Z,10.07
2022-12-31T14:26:03.382Z,9.05
2022-12-31T14:29:09.043Z,10.25
2022-12-31T14:32:01.850Z,6.18
2022-12-31T14:34:52.352Z,7.78
2022-12-31T14:37:42.679Z,5.57
2022-12-31T14:40:17.678Z,6.93
2022-12-31T14:43:07.055Z,5.70
2022-12-31T14:45:46.257Z,6.70
2022-12-31T14:48:51.447Z,7.32
2022-12-31T14:51:19.052Z,7.63
2022-12-31T14:53:54.831Z,8.85
2022-12-31T14:56:40.525Z,5.80
2022-12-31T14:59:35.657Z,6.40
2022-12-31T15:02:24.676Z,7.88
2022-12-31T15:05:03.615Z,7.50
2022-12-31T15:07:48.677Z,6.13
2022-12-31T15:10:23.498Z,6.35
2022-12-31T15:13:08.048Z,6.78
2022-12-31T15:16:14.021Z,7.05
2022-12-31T15:18:49.824Z,6.47
2022-12-31T15:21:41.780Z,9.27
2022-12-31T15:24:31.186Z,7.85
2022-12-31T15:27:05.353Z,9.60
2022-12-31T15:29:51.209Z,9.18
2022-12-31T15:32:23.699Z,11.23
2022-12-31T15:35:05.556Z,11.80
2022-12-31T15:37:36.214Z,10.40
2022-12-31T15:40:25.397Z,12.25
2022-12-31T15:43:19.741Z,14.05
2022-12-31T15:48:22.420Z,15.20
2022-12-31T15:53:43.099Z,16.20
2022-12-31T15:56:27.361Z,18.85
2022-12-31T15:58:58.981Z,21.20
2022-12-31T16:01:36.635Z,16.95
2022-12-31T16:04:28.309Z,20.23
2022-12-31T16:07:01.463Z,17.42
2022-12-31T16:09:36.343Z,16.52
2022-12-31T16:12:16.398Z,14.43
2022-12-31T16:14:45.477Z,11.48
2022-12-31T16:17:35.348Z,10.90
2022-12-31T16:20:22.671Z,10.57
2022-12-31T16:23:00.552Z,9.25
2022-12-31T16:25:31.564Z,9.20
2022-12-31T16:28:03.124Z,8.50
2022-12-31T16:30:36.710Z,8.38
2022-12-31T16:33:07.533Z,7.72
2022-12-31T16:35:37.796Z,7.25
2022-12-31T16:38:08.243Z,8.05
2022-12-31T16:40:44.651Z,6.55
2022-12-31T16:43:38.105Z,9.45
2022-12-31T16:46:27.243Z,11.97
2022-12-31T16:49:04.787Z,6.68
2022-12-31T16:51:34.504Z,7.43
2022-12-31T16:54:02.835Z,9.15
2022-12-31T16:56:39.799Z,5.97
2022-12-31T16:59:18.531Z,5.95
2022-12-31T17:01:47.321Z,6.90
2022-12-31T17:04:21.744Z,7.32
2022-12-31T17:06:54.850Z,7.40
2022-12-31T17:09:36.904Z,6.57
2022-12-31T17:12:19.768Z,5.10
2022-12-31T17:15:05.677Z,8.65
2022-12-31T17:17:38.281Z,9.85
2022-12-31T17:20:09.644Z,7.97
2022-12-31T17:22:46.733Z,7.28
2022-12-31T17:25:25.676Z,4.57
2022-12-31T17:27:58.785Z,5.60
2022-12-31T17:30:28.751Z,5.28
2022-12-31T17:33:09.764Z,4.68
2022-12-31T17:35:49.854Z,10.07
2022-12-31T17:38:23.879Z,15.43
2022-12-31T17:41:05.677Z,16.33
2022-12-31T17:43:38.385Z,18.48
2022-12-31T17:46:17.269Z,14.80
2022-12-31T17:48:55.543Z,16.60
2022-12-31T17:51:24.288Z,16.45
2022-12-31T17:53:51.964Z,16.42
2022-12-31T17:56:20.624Z,15.43
2022-12-31T17:58:51.826Z,19.20
2022-12-31T18:01:21.950Z,17.83
2022-12-31T18:03:49.237Z,15.88
2022-12-31T18:06:17.413Z,15.63
2022-12-31T18:08:44.989Z,14.52
2022-12-31T18:11:18.209Z,15.95
2022-12-31T18:13:45.767Z,18.10
2022-12-31T18:16:15.774Z,16.80
2022-12-31T18:18:44.049Z,15.57
2022-12-31T18:21:35.197Z,15.63
2022-12-31T18:26:33.357Z,15.13
2022-12-31T18:29:17.919Z,17.65
2022-12-31T18:31:47.043Z,17.88
2022-12-31T18:34:20.700Z,17.40
2022-12-31T18:36:48.144Z,15.25
2022-12-31T18:39:15.591Z,13.45
2022-12-31T18:41:49.859Z,12.43
2022-12-31T18:44:17.799Z,12.07
2022-12-31T18:46:45.203Z,10.95
2022-12-31T18:49:14.576Z,11.80
2022-12-31T18:51:42.026Z,10.20
2022-12-31T18:54:12.334Z,9.65
2022-12-31T18:56:43.437Z,11.27
2022-12-31T18:59:14.841Z,8.98
2022-12-31T19:01:42.312Z,8.35
2022-12-31T19:04:27.711Z,6.82
2022-12-31T19:06:56.945Z,10.40
2022-12-31T19:09:44.611Z,8.13
2022-12-31T19:12:15.295Z,8.95
2022-12-31T19:14:43.034Z,7.63
2022-12-31T19:17:11.387Z,9.30
2022-12-31T19:19:38.845Z,6.82
2022-12-31T19:22:06.438Z,7.05
2022-12-31T19:24:34.581Z,6.70
2022-12-31T19:27:01.816Z,8.18
2022-12-31T19:29:29.473Z,7.68
2022-12-31T19:31:58.364Z,9.45
2022-12-31T19:34:26.671Z,8.70
2022-12-31T19:36:54.132Z,9.55
2022-12-31T19:39:21.991Z,9.38
2022-12-31T19:41:56.636Z,9.13
2022-12-31T19:44:27.596Z,9.68
2022-12-31T19:46:54.753Z,10.23
2022-12-31T19:49:27.770Z,8.43
2022-12-31T19:51:55.269Z,8.52
2022-12-31T19:54:23.699Z,11.88
2022-12-31T19:56:51.200Z,8.52
2022-12-31T19:59:18.684Z,7.72
2022-12-31T20:01:48.208Z,8.57
2022-12-31T20:04:18.523Z,7.18
2022-12-31T20:06:45.594Z,7.38
2022-12-31T20:09:13.166Z,9.85
2022-12-31T20:11:40.608Z,7.40
2022-12-31T20:14:10.413Z,6.57
2022-12-31T20:16:37.533Z,9.23
2022-12-31T20:19:06.331Z,11.45
2022-12-31T20:21:35.446Z,21.20
2022-12-31T20:24:02.969Z,18.95
2022-12-31T20:26:30.723Z,24.50
2022-12-31T20:28:57.944Z,26.50
2022-12-31T20:31:27.497Z,25.67
2022-12-31T20:33:56.388Z,24.27
2022-12-31T20:36:24.355Z,13.93
2022-12-31T20:38:51.915Z,14.70
2022-12-31T20:41:22.581Z,13.77
2022-12-31T20:43:50.299Z,16.42
2022-12-31T20:46:25.010Z,28.65
2022-12-31T20:48:54.467Z,21.73
2022-12-31T20:51:23.356Z,20.63
2022-12-31T20:53:59.830Z,20.05
2022-12-31T20:56:29.540Z,22.60
2022-12-31T20:58:57.580Z,21.10
2022-12-31T21:01:36.406Z,16.10
2022-12-31T21:04:13.971Z,13.20
2022-12-31T21:06:43.469Z,16.65
2022-12-31T21:09:11.193Z,14.05
2022-12-31T21:11:56.772Z,12.68
2022-12-31T21:14:24.499Z,14.20
2022-12-31T21:16:52.812Z,16.52
2022-12-31T21:19:20.376Z,13.68
2022-12-31T21:21:48.522Z,15.45
2022-12-31T21:24:23.314Z,13.60
2022-12-31T21:26:51.949Z,14.68
2022-12-31T21:29:19.282Z,15.30
2022-12-31T21:31:46.726Z,15.32
2022-12-31T21:34:15.297Z,17.40
2022-12-31T21:36:42.711Z,15.80
2022-12-31T21:39:10.215Z,17.05
2022-12-31T21:41:53.612Z,16.52
2022-12-31T21:44:23.651Z,16.67
2022-12-31T21:47:33.407Z,18.77
2022-12-31T21:49:43.298Z,17.67
2022-12-31T21:52:33.762Z,16.98
2022-12-31T21:55:21.404Z,15.88
2022-12-31T22:00:56.769Z,15.40
2022-12-31T22:03:29.632Z,16.77
2022-12-31T22:06:16.486Z,13.60
2022-12-31T22:08:49.130Z,14.20
2022-12-31T22:11:18.740Z,16.73
2022-12-31T22:13:48.172Z,16.40
2022-12-31T22:16:17.469Z,16.20
2022-12-31T22:18:45.002Z,19.13
2022-12-31T22:21:18.895Z,20.00
2022-12-31T22:23:53.122Z,19.77
2022-12-31T22:26:25.863Z,19.48
2022-12-31T22:28:59.528Z,14.93
2022-12-31T22:31:31.463Z,12.70
2022-12-31T22:34:00.145Z,11.80
2022-12-31T22:36:27.976Z,10.85
2022-12-31T22:38:58.707Z,10.90
2022-12-31T22:41:29.249Z,12.05
2022-12-31T22:44:03.468Z,10.48
2022-12-31T22:46:32.449Z,11.38
2022-12-31T22:49:02.280Z,9.68
2022-12-31T22:51:56.281Z,10.73
2022-12-31T22:54:22.194Z,9.88
2022-12-31T22:56:51.520Z,6.97
2022-12-31T22:59:20.088Z,7.50
2022-12-31T23:01:47.628Z,6.95
2022-12-31T23:04:15.591Z,8.07
2022-12-31T23:06:45.801Z,8.30
2022-12-31T23:09:34.467Z,10.57
2022-12-31T23:12:06.476Z,10.63
2022-12-31T23:15:11.797Z,7.80
2022-12-31T23:18:00.001Z,9.43
2022-12-31T23:20:45.947Z,9.05
2022-12-31T23:23:16.777Z,8.50
2022-12-31T23:25:48.275Z,7.60
2022-12-31T23:28:22.273Z,9.52
2022-12-31T23:30:54.030Z,10.45
2022-12-31T23:33:23.821Z,8.93
2022-12-31T23:36:01.996Z,9.65
2022-12-31T23:38:29.156Z,13.38
2022-12-31T23:41:00.649Z,12.15
2022-12-31T23:43:29.086Z,11.50
2022-12-31T23:45:56.477Z,10.23
2022-12-31T23:48:24.044Z,13.68
2022-12-31T23:50:54.004Z,13.18
2022-12-31T23:53:23.642Z,12.20
2022-12-31T23:55:51.639Z,11.13
2022-12-31T23:58:25.121Z,13.02
